Impacts METAR Board
IDs:

KLHB - Hearne Muni, TX, US

Updated at: 2300 UTC 18 Oct 2019
Potential Impact None Slight Moderate High
Time 18/11Z 18/12Z 18/13Z 18/14Z 18/15Z 18/16Z 18/17Z 18/18Z 18/19Z 18/20Z 18/21Z 18/22Z 18/23Z
Temp48 47 46 53 60 65 70 74 77 79 80 80 79
Dewpt47 46 45 50 53 52 47 46 44 47 45 45 48
Altim29.92 29.93 29.92 29.92 29.92 29.91 29.90 29.86 29.82 29.78 29.76 29.75 29.74
VIS10 10 10 10 10 10 10 10 10 10 10 10 10
CIG-- -- -- -- -- -- -- -- -- -- -- -- --
CoverCLRCLRCLRCLRCLRCLRCLRCLRCLRCLRCLRCLRCLR
FltCatVFRVFRVFRVFRVFRVFRVFRVFRVFRVFRVFRVFRVFR
WX--------------------------
WDir0000000016060130120110
WSpd0 0 0 0 0 0 0 0 3 4 6 3 3
WGst-- -- -- -- -- -- -- -- -- -- -- -- --
Raw hourly METARs
KLHB 181055Z AUTO 00000KT 10SM CLR 09/08 A2992 RMK AO2 T00910083
KLHB 181155Z AUTO 00000KT 10SM CLR 08/08 A2993 RMK AO2 T00840076 10120 20084
KLHB 181255Z AUTO 00000KT 10SM CLR 08/07 A2992 RMK AO2 T00800072
KLHB 181355Z AUTO 00000KT 10SM CLR 11/10 A2992 RMK AO2 T01140102
KLHB 181455Z AUTO 00000KT 10SM CLR 15/12 A2992 RMK AO2 T01530117
KLHB 181555Z AUTO 00000KT 10SM CLR 18/11 A2991 RMK AO2 T01840109
KLHB 181655Z AUTO 00000KT 10SM CLR 21/09 A2990 RMK AO2 T02120086
KLHB 181755Z AUTO 00000KT 10SM CLR 23/08 A2986 RMK AO2 T02330078 10234 20079
KLHB 181855Z AUTO 16003KT 10SM CLR 25/07 A2982 RMK AO2 T02500069
KLHB 181955Z AUTO 06004KT 10SM CLR 26/08 A2978 RMK AO2 T02620082
KLHB 182055Z AUTO 13006KT 10SM CLR 27/07 A2976 RMK AO2 T02650072
KLHB 182155Z AUTO 12003KT 10SM CLR 27/07 A2975 RMK AO2 T02660074
KLHB 182255Z AUTO 11003KT 10SM CLR 26/09 A2974 RMK AO2 T02630089